createdAt,value
2017-08-01T00:04:25.699Z,"    0"
2017-08-01T00:09:22.519Z,"    0"
2017-08-01T00:14:18.227Z,"    0"
2017-08-01T00:19:14.839Z,"    0"
2017-08-01T00:24:10.752Z,"    0"
2017-08-01T00:29:07.905Z,"    0"
2017-08-01T00:34:03.430Z,"    0"
2017-08-01T00:38:59.720Z,"    0"
2017-08-01T00:43:56.672Z,"    0"
2017-08-01T00:48:53.433Z,"    0"
2017-08-01T00:53:49.064Z,"    0"
2017-08-01T00:58:44.867Z,"    0"
2017-08-01T01:03:41.936Z,"    0"
2017-08-01T01:08:37.486Z,"    0"
2017-08-01T01:13:33.429Z,"    0"
2017-08-01T01:18:29.222Z,"    0"
2017-08-01T01:23:24.959Z,"    0"
2017-08-01T01:28:21.288Z,"    0"
2017-08-01T01:33:17.175Z,"    0"
2017-08-01T01:38:13.139Z,"    0"
2017-08-01T01:43:10.367Z,"    0"
2017-08-01T01:48:06.604Z,"    0"
2017-08-01T01:53:03.920Z,"    0"
2017-08-01T01:57:59.863Z,"    0"
2017-08-01T02:02:55.997Z,"    0"
2017-08-01T02:07:52.597Z,"    0"
2017-08-01T02:12:48.615Z,"    0"
2017-08-01T02:17:44.843Z,"    0"
2017-08-01T02:22:40.863Z,"    0"
2017-08-01T02:27:37.544Z,"    0"
2017-08-01T02:32:33.744Z,"    0"
2017-08-01T02:37:30.767Z,"    0"
2017-08-01T02:42:27.542Z,"    0"
2017-08-01T02:47:24.215Z,"    0"
2017-08-01T02:52:20.776Z,"    0"
2017-08-01T02:57:17.313Z,"    0"
2017-08-01T03:02:13.031Z,"    0"
2017-08-01T03:07:08.926Z,"    0"
2017-08-01T03:12:05.012Z,"    0"
2017-08-01T03:17:01.819Z,"    0"
2017-08-01T03:21:58.730Z,"    0"
2017-08-01T03:26:54.194Z,"    0"
2017-08-01T03:31:50.208Z,"    0"
2017-08-01T03:36:46.258Z,"    0"
2017-08-01T03:41:42.166Z,"    0"
2017-08-01T03:46:39.670Z,"    0"
2017-08-01T03:51:35.357Z,"    0"
2017-08-01T03:56:31.197Z,"    0"
2017-08-01T04:01:28.412Z,"    5"
2017-08-01T04:06:24.569Z,"    5"
2017-08-01T04:11:21.767Z,"   10"
2017-08-01T04:16:17.459Z,"   15"
2017-08-01T04:21:13.578Z,"   20"
2017-08-01T04:26:10.597Z,"   25"
2017-08-01T04:31:06.978Z,"   40"
2017-08-01T04:36:03.513Z,"   60"
2017-08-01T04:41:00.412Z,"   60"
2017-08-01T04:45:56.341Z,"   95"
2017-08-01T04:50:53.598Z,"   80"
2017-08-01T04:55:50.430Z,"   55"
2017-08-01T05:00:46.403Z,"   65"
2017-08-01T05:05:43.467Z,"   85"
2017-08-01T05:10:39.718Z,"   95"
2017-08-01T05:15:37.190Z,"  105"
2017-08-01T05:20:33.926Z,"  125"
2017-08-01T05:25:30.950Z,"  135"
2017-08-01T05:30:26.743Z,"  105"
2017-08-01T05:35:22.869Z,"  105"
2017-08-01T05:40:18.905Z,"   95"
2017-08-01T05:45:14.686Z,"  100"
2017-08-01T05:50:10.828Z,"  105"
2017-08-01T05:55:06.895Z,"  100"
2017-08-01T06:00:03.880Z,"  100"
2017-08-01T06:04:59.964Z,"   85"
2017-08-01T06:09:55.896Z,"   95"
2017-08-01T06:14:51.975Z,"  100"
2017-08-01T06:19:47.980Z,"  130"
2017-08-01T06:24:44.180Z,"  115"
2017-08-01T06:29:42.159Z,"  110"
2017-08-01T06:34:37.535Z,"  155"
2017-08-01T06:39:34.499Z,"  175"
2017-08-01T06:44:30.385Z,"  215"
2017-08-01T06:49:26.716Z,"  190"
2017-08-01T06:54:22.934Z,"  210"
2017-08-01T06:59:19.353Z,"  225"
2017-08-01T07:04:16.533Z,"  250"
2017-08-01T07:09:12.629Z,"  275"
2017-08-01T07:14:09.297Z,"  245"
2017-08-01T07:19:07.233Z,"  240"
2017-08-01T07:24:03.948Z,"  240"
2017-08-01T07:28:59.730Z,"  250"
2017-08-01T07:33:55.622Z,"  275"
2017-08-01T07:38:52.796Z,"  320"
2017-08-01T07:43:48.995Z,"  300"
2017-08-01T07:48:44.933Z,"  315"
2017-08-01T07:53:40.978Z,"  300"
2017-08-01T07:58:37.401Z,"  480"
2017-08-01T08:03:34.225Z,"  480"
2017-08-01T08:08:30.791Z,"  390"
2017-08-01T08:13:28.381Z,"  315"
2017-08-01T08:18:25.263Z,"  245"
2017-08-01T08:23:21.845Z,"  255"
2017-08-01T08:28:17.619Z,"  275"
2017-08-01T08:33:14.543Z,"  270"
2017-08-01T08:38:10.201Z,"  340"
2017-08-01T08:43:07.374Z,"  430"
2017-08-01T08:48:04.396Z,"  365"
2017-08-01T08:53:01.516Z,"  350"
2017-08-01T08:57:57.053Z,"  315"
2017-08-01T09:02:54.130Z,"  395"
2017-08-01T09:07:50.242Z,"  430"
2017-08-01T09:12:46.305Z,"  330"
2017-08-01T09:17:42.400Z,"  290"
2017-08-01T09:22:37.990Z,"  225"
2017-08-01T09:27:34.509Z,"  230"
2017-08-01T09:32:30.984Z,"  260"
2017-08-01T09:37:28.503Z,"  255"
2017-08-01T09:42:24.634Z,"  200"
2017-08-01T09:47:21.710Z,"  170"
2017-08-01T09:52:17.300Z,"  175"
2017-08-01T09:57:14.007Z,"  170"
2017-08-01T10:02:10.399Z,"  220"
2017-08-01T10:07:06.135Z,"  355"
2017-08-01T10:12:02.116Z,"  260"
2017-08-01T10:16:59.126Z,"  110"
2017-08-01T10:21:55.714Z,"  115"
2017-08-01T10:26:52.352Z,"  185"
2017-08-01T10:31:49.011Z,"  295"
2017-08-01T10:36:45.339Z,"  885"
2017-08-01T10:41:44.749Z," 1345"
2017-08-01T10:46:43.179Z," 1205"
2017-08-01T10:51:39.792Z," 1730"
2017-08-01T10:56:37.033Z,"  615"
2017-08-01T11:01:33.162Z,"  365"
2017-08-01T11:06:28.359Z,"  370"
2017-08-01T11:11:24.462Z,"  410"
2017-08-01T11:16:21.179Z,"  510"
2017-08-01T11:21:16.635Z,"  485"
2017-08-01T11:26:14.485Z,"  595"
2017-08-01T11:31:12.466Z,"  465"
2017-08-01T11:36:09.998Z,"  795"
2017-08-01T11:41:08.067Z,"  570"
2017-08-01T11:46:02.859Z,"  200"
2017-08-01T11:50:57.709Z,"  180"
2017-08-01T11:55:52.815Z,"  225"
2017-08-01T12:00:48.760Z,"  195"
2017-08-01T12:05:44.384Z,"  185"
2017-08-01T12:10:40.327Z,"  255"
2017-08-01T12:15:36.436Z,"  250"
2017-08-01T12:20:35.063Z,"  215"
2017-08-01T12:25:31.644Z,"  190"
2017-08-01T12:30:27.245Z,"  305"
2017-08-01T12:35:24.622Z,"  390"
2017-08-01T12:40:21.591Z,"  190"
2017-08-01T12:45:18.126Z,"  175"
2017-08-01T12:50:14.779Z,"  110"
2017-08-01T12:55:11.399Z,"   95"
2017-08-01T13:00:08.588Z,"   90"
2017-08-01T13:05:05.191Z,"   90"
2017-08-01T13:10:01.906Z,"  100"
2017-08-01T13:14:58.215Z,"  120"
2017-08-01T13:19:53.890Z,"  115"
2017-08-01T13:24:50.673Z,"  120"
2017-08-01T13:29:47.290Z,"  125"
2017-08-01T13:34:42.781Z,"  110"
2017-08-01T13:39:38.623Z,"   70"
2017-08-01T13:44:34.530Z,"   75"
2017-08-01T13:49:30.354Z,"  130"
2017-08-01T13:54:28.045Z,"  240"
2017-08-01T13:59:25.241Z,"  490"
2017-08-01T14:04:21.458Z,"  360"
2017-08-01T14:09:19.700Z,"  290"
2017-08-01T14:14:15.094Z,"  175"
2017-08-01T14:19:10.995Z,"  155"
2017-08-01T14:24:06.703Z,"  210"
2017-08-01T14:29:04.774Z,"  195"
2017-08-01T14:34:01.029Z,"  185"
2017-08-01T14:38:56.668Z,"  175"
2017-08-01T14:43:53.078Z,"  195"
2017-08-01T14:48:49.421Z,"  180"
2017-08-01T14:53:47.618Z,"  145"
2017-08-01T14:58:42.975Z,"  130"
2017-08-01T15:03:40.919Z,"  170"
2017-08-01T15:08:37.766Z,"  160"
2017-08-01T15:13:34.539Z,"  175"
2017-08-01T15:18:30.197Z,"  140"
2017-08-01T15:23:27.295Z,"  165"
2017-08-01T15:28:23.848Z,"  185"
2017-08-01T15:33:19.652Z,"  110"
2017-08-01T15:38:17.395Z,"  115"
2017-08-01T15:43:13.683Z,"  145"
2017-08-01T15:48:09.370Z,"   90"
2017-08-01T15:53:08.807Z,"  105"
2017-08-01T15:58:04.843Z,"   90"
2017-08-01T16:03:01.855Z,"  105"
2017-08-01T16:07:57.641Z,"  120"
2017-08-01T16:12:53.696Z,"  110"
2017-08-01T16:17:49.630Z,"   85"
2017-08-01T16:22:46.770Z,"   75"
2017-08-01T16:27:43.307Z,"   75"
2017-08-01T16:32:38.743Z,"   50"
2017-08-01T16:37:35.739Z,"   35"
2017-08-01T16:42:32.461Z,"   40"
2017-08-01T16:47:29.111Z,"   50"
2017-08-01T16:52:24.690Z,"   35"
2017-08-01T16:57:21.339Z,"   40"
2017-08-01T17:02:20.361Z,"   35"
2017-08-01T17:07:16.873Z,"   50"
2017-08-01T17:12:12.437Z,"   55"
2017-08-01T17:17:09.535Z,"   60"
2017-08-01T17:22:05.116Z,"   40"
2017-08-01T17:27:02.027Z,"   25"
2017-08-01T17:31:58.606Z,"   40"
2017-08-01T17:36:54.296Z,"   45"
2017-08-01T17:41:51.474Z,"   60"
2017-08-01T17:46:48.349Z,"   40"
2017-08-01T17:51:45.407Z,"   20"
2017-08-01T17:56:41.026Z,"   15"
2017-08-01T18:01:37.046Z,"   15"
2017-08-01T18:06:32.829Z,"   15"
2017-08-01T18:11:29.031Z,"   20"
2017-08-01T18:16:24.809Z,"   25"
2017-08-01T18:21:20.676Z,"   20"
2017-08-01T18:26:18.433Z,"   35"
2017-08-01T18:31:16.159Z,"   35"
2017-08-01T18:36:13.404Z,"   30"
2017-08-01T18:41:09.951Z,"   25"
2017-08-01T18:46:06.550Z,"   15"
2017-08-01T18:51:03.202Z,"   15"
2017-08-01T18:55:58.870Z,"   10"
2017-08-01T19:00:55.775Z,"   10"
2017-08-01T19:05:51.080Z,"    5"
2017-08-01T19:10:48.505Z,"    5"
2017-08-01T19:15:45.154Z,"    5"
2017-08-01T19:20:40.959Z,"    0"
2017-08-01T19:25:37.477Z,"    0"
2017-08-01T19:30:33.527Z,"    0"
2017-08-01T19:35:30.183Z,"    0"
2017-08-01T19:40:26.458Z,"    0"
2017-08-01T19:45:22.904Z,"    0"
2017-08-01T19:50:19.758Z,"    0"
2017-08-01T19:55:15.774Z,"    0"
2017-08-01T20:00:11.324Z,"    0"
2017-08-01T20:05:08.839Z,"    0"
2017-08-01T20:10:05.628Z,"    0"
2017-08-01T20:15:01.136Z,"    0"
2017-08-01T20:19:56.966Z,"    0"
2017-08-01T20:24:53.331Z,"    0"
2017-08-01T20:29:49.380Z,"    0"
2017-08-01T20:34:45.426Z,"    0"
2017-08-01T20:39:42.378Z,"    0"
2017-08-01T20:44:38.968Z,"    0"
2017-08-01T20:49:35.623Z,"    0"
2017-08-01T20:54:32.238Z,"    0"
2017-08-01T20:59:27.767Z,"    0"
2017-08-01T21:04:23.930Z,"    0"
2017-08-01T21:09:19.833Z,"    0"
2017-08-01T21:14:15.698Z,"    0"
2017-08-01T21:19:11.561Z,"    0"
2017-08-01T21:29:03.608Z,"    0"
2017-08-01T21:34:00.587Z,"    0"
2017-08-01T21:38:56.152Z,"    0"
2017-08-01T21:43:53.047Z,"    0"
2017-08-01T21:48:49.373Z,"    0"
2017-08-01T21:53:46.161Z,"    0"
2017-08-01T21:58:41.673Z,"    0"
2017-08-01T22:03:38.875Z,"    0"
2017-08-01T22:08:34.566Z,"    0"
2017-08-01T22:13:31.293Z,"    0"
2017-08-01T22:18:26.779Z,"    0"
2017-08-01T22:23:23.748Z,"    0"
2017-08-01T22:28:19.425Z,"    0"
2017-08-01T22:33:15.463Z,"    0"
2017-08-01T22:38:13.247Z,"    0"
2017-08-01T22:43:09.630Z,"    0"
2017-08-01T22:48:06.196Z,"    0"
2017-08-01T22:53:01.670Z,"    0"
2017-08-01T22:57:57.590Z,"    0"
2017-08-01T23:02:53.586Z,"    0"
2017-08-01T23:07:49.472Z,"    0"
2017-08-01T23:12:46.900Z,"    0"
2017-08-01T23:17:43.310Z,"    0"
2017-08-01T23:22:40.797Z,"    0"
2017-08-01T23:27:40.423Z,"    0"
2017-08-01T23:32:35.878Z,"    0"
2017-08-01T23:37:31.845Z,"    0"
2017-08-01T23:42:29.564Z,"    0"
2017-08-01T23:47:26.708Z,"    0"
2017-08-01T23:52:22.126Z,"    0"
2017-08-01T23:57:18.885Z,"    0"
